Time;durP1;ratioP1;P1;durP2;ratioP2;P2;SDS_P1;SDS_P2;PMS_P1;PMS_P2;Temp;Humidity;BMP_temperature;BMP_pressure;BME280_temperature;BME280_humidity;BME280_pressure;Samples;Min_cycle;Max_cycle;Signal;HPM_P1;HPM_P2
2021/07/30 00:01:20;;;;;;;;;21.50;21.50;;;;;;;;8725332;40;10901;-60
2021/07/30 00:07:23;;;;;;;;;23.00;22.75;;;;;;;;8724014;40;10979;-60
2021/07/30 00:13:25;;;;;;;;;25.00;22.75;;;;;;;;8724833;40;11835;-60
2021/07/30 00:19:27;;;;;;;;;25.75;23.25;;;;;;;;8723814;40;10795;-59
2021/07/30 00:25:30;;;;;;;;;17.00;15.00;;;;;;;;8723775;40;10847;-59
2021/07/30 00:31:32;;;;;;;;;25.75;22.50;;;;;;;;8723583;40;10897;-59
2021/07/30 00:37:35;;;;;;;;;27.50;23.50;;;;;;;;8724303;40;11849;-60
2021/07/30 00:43:37;;;;;;;;;25.00;23.75;;;;;;;;8724082;40;10922;-59
2021/07/30 00:49:40;;;;;;;;;24.50;23.50;;;;;;;;8724981;40;10727;-60
2021/07/30 00:55:47;;;;;;;;;24.00;20.75;;;;;;;;8724920;40;10765;-60
2021/07/30 01:01:50;;;;;;;;;24.25;24.25;;;;;;;;8722441;40;10762;-60
2021/07/30 01:07:53;;;;;;;;;16.25;15.00;;;;;;;;8724685;40;10700;-59
2021/07/30 01:13:55;;;;;;;;;21.00;19.00;;;;;;;;8724357;40;10707;-60
2021/07/30 01:19:57;;;;;;;;;22.00;19.75;;;;;;;;8723025;40;11461;-59
2021/07/30 01:26:00;;;;;;;;;21.25;19.00;;;;;;;;8723590;40;10838;-59
2021/07/30 01:32:02;;;;;;;;;19.25;18.00;;;;;;;;8722917;40;10896;-60
2021/07/30 01:38:04;;;;;;;;;19.50;19.00;;;;;;;;8723673;40;10759;-59
2021/07/30 01:44:06;;;;;;;;;21.00;17.00;;;;;;;;8722818;40;11026;-60
2021/07/30 01:50:09;;;;;;;;;20.00;17.00;;;;;;;;8722313;40;10862;-59
2021/07/30 01:56:11;;;;;;;;;22.00;19.50;;;;;;;;8725907;40;10976;-59
2021/07/30 02:02:13;;;;;;;;;23.50;21.00;;;;;;;;8726517;40;10953;-59
2021/07/30 02:08:15;;;;;;;;;21.50;18.75;;;;;;;;8726330;40;10922;-59
2021/07/30 02:14:18;;;;;;;;;20.25;19.50;;;;;;;;8726190;40;10727;-59
2021/07/30 02:20:20;;;;;;;;;15.25;14.25;;;;;;;;8726222;40;11549;-60
2021/07/30 02:26:22;;;;;;;;;19.50;18.00;;;;;;;;8725440;40;10860;-58
2021/07/30 02:32:24;;;;;;;;;16.75;16.25;;;;;;;;8725451;40;11400;-58
2021/07/30 02:38:26;;;;;;;;;15.00;12.75;;;;;;;;8724212;40;11008;-60
2021/07/30 02:44:29;;;;;;;;;18.00;17.00;;;;;;;;8725567;40;10699;-60
2021/07/30 02:50:31;;;;;;;;;19.00;15.25;;;;;;;;8725611;40;11152;-61
2021/07/30 02:56:33;;;;;;;;;17.25;16.75;;;;;;;;8724926;40;10981;-59
2021/07/30 03:02:35;;;;;;;;;21.00;17.50;;;;;;;;8724844;40;11042;-59
2021/07/30 03:08:38;;;;;;;;;16.75;16.75;;;;;;;;8724393;40;11167;-60
2021/07/30 03:14:40;;;;;;;;;13.00;13.00;;;;;;;;8724934;40;11881;-59
2021/07/30 03:20:42;;;;;;;;;15.00;13.00;;;;;;;;8724945;40;11431;-59
2021/07/30 03:26:44;;;;;;;;;18.75;15.50;;;;;;;;8724884;40;10755;-59
2021/07/30 03:32:46;;;;;;;;;15.75;14.00;;;;;;;;8724417;40;10683;-60
2021/07/30 03:38:48;;;;;;;;;17.75;17.75;;;;;;;;8725814;40;10821;-60
2021/07/30 03:44:50;;;;;;;;;16.00;16.00;;;;;;;;8725981;40;10959;-59
2021/07/30 03:50:53;;;;;;;;;16.00;16.00;;;;;;;;8724218;40;10807;-60
2021/07/30 03:56:55;;;;;;;;;15.50;14.75;;;;;;;;8724405;40;10705;-60
2021/07/30 04:02:57;;;;;;;;;16.50;12.25;;;;;;;;9734348;23;10761;-64
2021/07/30 04:09:01;;;;;;;;;16.50;14.00;;;;;;;;8728825;40;10699;-63
2021/07/30 04:15:04;;;;;;;;;15.25;14.75;;;;;;;;8728557;40;10855;-63
2021/07/30 04:21:08;;;;;;;;;14.50;14.25;;;;;;;;8727141;40;10812;-64
2021/07/30 04:27:10;;;;;;;;;15.25;14.75;;;;;;;;8726286;40;11828;-64
2021/07/30 04:33:12;;;;;;;;;15.50;14.50;;;;;;;;8728003;40;10753;-64
2021/07/30 04:39:14;;;;;;;;;18.00;15.25;;;;;;;;8725557;40;10695;-63
2021/07/30 04:45:16;;;;;;;;;13.00;13.00;;;;;;;;8728575;40;10652;-63
2021/07/30 04:51:22;;;;;;;;;14.50;14.00;;;;;;;;8728178;40;10549;-63
2021/07/30 04:57:24;;;;;;;;;13.50;12.00;;;;;;;;8726861;40;10519;-64
2021/07/30 05:03:29;;;;;;;;;15.00;14.00;;;;;;;;8727736;40;11231;-63
2021/07/30 05:09:31;;;;;;;;;13.25;12.00;;;;;;;;8728009;40;10669;-63
2021/07/30 05:15:33;;;;;;;;;14.25;11.75;;;;;;;;8727151;40;11408;-63
2021/07/30 05:21:35;;;;;;;;;14.75;13.75;;;;;;;;8726823;40;10775;-63
2021/07/30 05:27:38;;;;;;;;;11.00;9.00;;;;;;;;8726322;40;10519;-63
2021/07/30 05:33:40;;;;;;;;;20.50;18.75;;;;;;;;8726974;40;10589;-63
2021/07/30 05:39:42;;;;;;;;;16.00;14.50;;;;;;;;8726479;40;10774;-63
2021/07/30 05:45:45;;;;;;;;;14.25;12.75;;;;;;;;8726864;40;10512;-61
2021/07/30 05:51:47;;;;;;;;;15.50;12.00;;;;;;;;8726015;40;10693;-63
2021/07/30 05:57:50;;;;;;;;;22.50;20.75;;;;;;;;8726665;40;11151;-63
2021/07/30 06:03:52;;;;;;;;;14.75;14.75;;;;;;;;8726149;40;10677;-63
2021/07/30 06:09:54;;;;;;;;;14.50;13.50;;;;;;;;8722570;40;10595;-64
2021/07/30 06:15:56;;;;;;;;;15.00;14.00;;;;;;;;8724215;40;10760;-62
2021/07/30 06:21:59;;;;;;;;;13.50;12.00;;;;;;;;8723273;40;10555;-62
2021/07/30 06:28:01;;;;;;;;;13.25;13.25;;;;;;;;8724743;40;10526;-62
2021/07/30 06:34:03;;;;;;;;;13.25;12.25;;;;;;;;8726902;40;10712;-62
2021/07/30 06:40:06;;;;;;;;;10.75;10.00;;;;;;;;8727422;40;10559;-62
2021/07/30 06:46:09;;;;;;;;;19.00;16.50;;;;;;;;8728928;40;10646;-63
2021/07/30 06:52:12;;;;;;;;;12.25;12.25;;;;;;;;8728299;40;10567;-63
2021/07/30 06:58:14;;;;;;;;;16.00;14.00;;;;;;;;8720997;40;10597;-63
2021/07/30 07:04:17;;;;;;;;;12.75;10.00;;;;;;;;8725944;40;10556;-63
2021/07/30 07:10:19;;;;;;;;;15.50;15.50;;;;;;;;8727986;40;11182;-62
2021/07/30 07:16:21;;;;;;;;;13.75;13.75;;;;;;;;8728494;40;10479;-63
2021/07/30 07:22:23;;;;;;;;;17.50;17.50;;;;;;;;8725849;40;10523;-63
2021/07/30 07:28:25;;;;;;;;;18.25;18.25;;;;;;;;8728312;40;10631;-64
2021/07/30 07:34:27;;;;;;;;;13.00;12.25;;;;;;;;8726963;40;10754;-63
2021/07/30 07:40:30;;;;;;;;;15.25;15.25;;;;;;;;8727751;40;10473;-63
2021/07/30 07:46:32;;;;;;;;;17.50;17.50;;;;;;;;8726389;40;10483;-63
2021/07/30 07:52:34;;;;;;;;;24.50;19.75;;;;;;;;8725152;40;10637;-64
2021/07/30 07:58:39;;;;;;;;;17.50;15.75;;;;;;;;8725114;40;10605;-64
2021/07/30 08:04:41;;;;;;;;;18.75;18.75;;;;;;;;8726374;40;10544;-63
2021/07/30 08:10:43;;;;;;;;;22.25;17.25;;;;;;;;8725418;40;10598;-63
2021/07/30 08:16:46;;;;;;;;;11.25;8.75;;;;;;;;8728124;40;10436;-63
2021/07/30 08:22:48;;;;;;;;;15.00;15.00;;;;;;;;8726339;40;10593;-63
2021/07/30 08:28:51;;;;;;;;;16.50;16.25;;;;;;;;8718774;40;10509;-63
2021/07/30 08:34:55;;;;;;;;;21.50;18.00;;;;;;;;8724217;40;11228;-62
2021/07/30 08:41:00;;;;;;;;;17.50;15.25;;;;;;;;8724373;40;10595;-63
2021/07/30 08:47:02;;;;;;;;;18.25;18.25;;;;;;;;8718881;40;11067;-64
2021/07/30 08:53:06;;;;;;;;;23.50;19.25;;;;;;;;8724534;40;10554;-64
2021/07/30 08:59:08;;;;;;;;;17.75;16.00;;;;;;;;8723733;40;10585;-63
2021/07/30 09:05:33;;;;;;;;;16.00;15.25;;;;;;;;8716201;40;10466;-63
2021/07/30 09:11:37;;;;;;;;;16.50;15.50;;;;;;;;8724644;40;10774;-63
2021/07/30 09:17:42;;;;;;;;;17.25;17.25;;;;;;;;8724371;40;10527;-64
2021/07/30 09:24:20;;;;;;;;;16.75;16.75;;;;;;;;8730430;40;10738;-62
2021/07/30 09:30:22;;;;;;;;;21.25;18.25;;;;;;;;8722511;40;10581;-63
2021/07/30 09:36:24;;;;;;;;;18.25;18.25;;;;;;;;8723885;40;10526;-63
2021/07/30 09:42:46;;;;;;;;;31.25;29.25;;;;;;;;8723791;40;10830;-62
2021/07/30 09:48:50;;;;;;;;;22.75;17.50;;;;;;;;8724004;40;10572;-64
2021/07/30 09:54:58;;;;;;;;;16.50;15.75;;;;;;;;8722215;40;10616;-65
2021/07/30 10:01:00;;;;;;;;;22.75;18.25;;;;;;;;8721423;40;10746;-63
2021/07/30 10:07:03;;;;;;;;;19.75;14.00;;;;;;;;8722874;40;10719;-64
2021/07/30 10:13:12;;;;;;;;;22.75;21.00;;;;;;;;8722512;40;10602;-64
2021/07/30 10:19:17;;;;;;;;;21.25;19.50;;;;;;;;8726441;40;10479;-62
2021/07/30 10:25:27;;;;;;;;;18.75;18.00;;;;;;;;8724652;40;10714;-63
2021/07/30 10:31:49;;;;;;;;;20.50;16.50;;;;;;;;8724725;40;10588;-64
2021/07/30 10:38:13;;;;;;;;;16.25;15.25;;;;;;;;8725942;40;10556;-63
2021/07/30 10:44:16;;;;;;;;;21.00;18.50;;;;;;;;8724750;40;10547;-62
2021/07/30 10:50:43;;;;;;;;;19.25;19.25;;;;;;;;8724847;40;10526;-63
2021/07/30 10:56:45;;;;;;;;;15.50;15.50;;;;;;;;8724366;40;11952;-63
2021/07/30 11:03:05;;;;;;;;;17.50;16.25;;;;;;;;8725988;40;10553;-64
2021/07/30 11:09:14;;;;;;;;;20.50;17.75;;;;;;;;8725380;40;10667;-64
2021/07/30 11:15:16;;;;;;;;;13.00;13.00;;;;;;;;8723012;40;10635;-64
2021/07/30 11:21:18;;;;;;;;;21.75;18.00;;;;;;;;8722814;40;10537;-64
2021/07/30 11:27:22;;;;;;;;;19.75;18.00;;;;;;;;8725046;40;10782;-64
2021/07/30 11:33:26;;;;;;;;;17.50;16.75;;;;;;;;8724403;40;11062;-63
2021/07/30 11:39:45;;;;;;;;;15.50;15.50;;;;;;;;8724226;40;10536;-64
2021/07/30 11:45:47;;;;;;;;;18.75;17.00;;;;;;;;8707193;40;10591;-63
2021/07/30 11:51:49;;;;;;;;;21.25;19.50;;;;;;;;8733315;40;10586;-63
2021/07/30 11:57:53;;;;;;;;;20.00;19.50;;;;;;;;8746554;40;11249;-63
2021/07/30 12:04:11;;;;;;;;;18.50;16.50;;;;;;;;8729574;40;10539;-64
2021/07/30 12:10:18;;;;;;;;;17.00;16.50;;;;;;;;8723494;40;10729;-64
2021/07/30 12:16:21;;;;;;;;;22.00;17.00;;;;;;;;8722754;40;10617;-64
2021/07/30 12:22:38;;;;;;;;;21.25;18.00;;;;;;;;8723975;40;10572;-62
2021/07/30 12:28:44;;;;;;;;;18.50;18.50;;;;;;;;8725595;40;10578;-61
2021/07/30 12:35:02;;;;;;;;;23.00;20.50;;;;;;;;8725205;40;10526;-64
2021/07/30 12:41:19;;;;;;;;;18.25;18.25;;;;;;;;8719488;40;10593;-64
2021/07/30 12:47:21;;;;;;;;;18.00;16.75;;;;;;;;8722820;40;10534;-61
2021/07/30 12:53:26;;;;;;;;;22.50;21.50;;;;;;;;8721644;40;10559;-63
2021/07/30 12:59:47;;;;;;;;;21.25;18.75;;;;;;;;8724413;40;11183;-63
2021/07/30 13:05:55;;;;;;;;;25.00;20.25;;;;;;;;8716594;40;10632;-61
2021/07/30 13:11:57;;;;;;;;;20.00;15.50;;;;;;;;8724235;40;10607;-63
2021/07/30 13:17:59;;;;;;;;;17.75;17.75;;;;;;;;8722692;40;11299;-64
2021/07/30 13:24:01;;;;;;;;;17.75;17.75;;;;;;;;8721513;40;10596;-63
2021/07/30 13:30:05;;;;;;;;;27.00;26.50;;;;;;;;8715974;40;10640;-64
2021/07/30 13:36:07;;;;;;;;;18.50;18.50;;;;;;;;8711883;40;10557;-64
2021/07/30 13:42:10;;;;;;;;;17.75;17.75;;;;;;;;8725081;40;10533;-62
2021/07/30 13:48:13;;;;;;;;;31.00;28.00;;;;;;;;8724007;40;10590;-63
2021/07/30 13:54:16;;;;;;;;;14.50;14.00;;;;;;;;8723363;40;10515;-63
2021/07/30 14:00:18;;;;;;;;;21.25;18.00;;;;;;;;8723826;40;10879;-61
2021/07/30 14:06:20;;;;;;;;;20.00;20.00;;;;;;;;8724403;40;11130;-62
2021/07/30 14:12:22;;;;;;;;;23.50;21.75;;;;;;;;8717333;40;10723;-63
2021/07/30 14:18:25;;;;;;;;;19.25;19.00;;;;;;;;8718757;40;10531;-62
2021/07/30 14:24:28;;;;;;;;;20.75;20.25;;;;;;;;8705908;40;11171;-63
2021/07/30 14:30:30;;;;;;;;;17.25;17.25;;;;;;;;8706849;40;11337;-63
2021/07/30 14:36:32;;;;;;;;;18.75;18.75;;;;;;;;8720979;40;10640;-64
2021/07/30 14:42:35;;;;;;;;;16.00;16.00;;;;;;;;8722229;40;10570;-63
2021/07/30 14:48:38;;;;;;;;;21.75;19.50;;;;;;;;8722569;40;10729;-63
2021/07/30 14:54:40;;;;;;;;;18.75;18.75;;;;;;;;8721811;40;10574;-64
2021/07/30 15:00:42;;;;;;;;;18.75;17.50;;;;;;;;8725033;40;11074;-62
2021/07/30 15:06:45;;;;;;;;;13.00;12.75;;;;;;;;8727235;40;10598;-64
2021/07/30 15:12:47;;;;;;;;;15.75;15.75;;;;;;;;8727126;40;10579;-63
2021/07/30 15:18:49;;;;;;;;;19.75;17.50;;;;;;;;8726855;40;10541;-63
2021/07/30 15:24:52;;;;;;;;;17.00;16.25;;;;;;;;8726571;40;10600;-63
2021/07/30 15:30:54;;;;;;;;;17.75;17.75;;;;;;;;8727792;40;10624;-63
2021/07/30 15:36:57;;;;;;;;;17.25;16.00;;;;;;;;8728202;40;10539;-65
2021/07/30 15:43:01;;;;;;;;;16.50;13.75;;;;;;;;8726252;40;10640;-63
2021/07/30 15:49:03;;;;;;;;;16.75;14.00;;;;;;;;8727215;40;10609;-63
2021/07/30 15:55:08;;;;;;;;;16.00;16.00;;;;;;;;8727137;40;10632;-63
2021/07/30 16:01:11;;;;;;;;;20.75;17.50;;;;;;;;8726792;40;10645;-64
2021/07/30 16:07:14;;;;;;;;;17.00;16.00;;;;;;;;8726298;40;11491;-64
2021/07/30 16:13:17;;;;;;;;;19.50;17.50;;;;;;;;8725032;40;10506;-63
2021/07/30 16:19:19;;;;;;;;;14.75;14.00;;;;;;;;8726391;40;10557;-62
2021/07/30 16:25:21;;;;;;;;;19.50;16.50;;;;;;;;8726956;40;10469;-62
2021/07/30 16:31:23;;;;;;;;;18.25;14.00;;;;;;;;8725893;40;11199;-62
2021/07/30 16:37:25;;;;;;;;;16.25;16.00;;;;;;;;8725764;40;10528;-63
2021/07/30 16:43:28;;;;;;;;;26.00;22.75;;;;;;;;8725181;40;10621;-61
2021/07/30 16:49:31;;;;;;;;;15.50;14.75;;;;;;;;8724985;40;10524;-63
2021/07/30 16:55:33;;;;;;;;;15.50;15.00;;;;;;;;8726024;40;10561;-64
2021/07/30 17:01:35;;;;;;;;;18.75;17.00;;;;;;;;8725339;40;10511;-63
2021/07/30 17:07:37;;;;;;;;;18.00;18.00;;;;;;;;8726559;40;10598;-63
2021/07/30 17:13:41;;;;;;;;;20.25;17.75;;;;;;;;8725946;40;10540;-62
2021/07/30 17:19:44;;;;;;;;;18.75;15.25;;;;;;;;8723941;40;10514;-62
2021/07/30 17:25:46;;;;;;;;;19.50;15.00;;;;;;;;8724801;40;10529;-63
2021/07/30 17:31:50;;;;;;;;;21.00;19.00;;;;;;;;8724711;40;10591;-62
2021/07/30 17:37:52;;;;;;;;;24.00;21.00;;;;;;;;8726138;40;10739;-63
2021/07/30 17:43:54;;;;;;;;;20.50;20.50;;;;;;;;8730258;40;11055;-63
2021/07/30 17:49:57;;;;;;;;;16.75;15.75;;;;;;;;8724477;40;10502;-62
2021/07/30 17:55:59;;;;;;;;;21.50;18.75;;;;;;;;8724292;40;10541;-63
2021/07/30 18:02:01;;;;;;;;;18.00;15.75;;;;;;;;8723386;40;10498;-63
2021/07/30 18:08:05;;;;;;;;;23.50;21.00;;;;;;;;8723283;40;10606;-62
2021/07/30 18:14:07;;;;;;;;;22.00;19.00;;;;;;;;8721975;40;10578;-63
2021/07/30 18:20:10;;;;;;;;;21.75;21.75;;;;;;;;8722400;40;10646;-63
2021/07/30 18:26:13;;;;;;;;;23.25;21.00;;;;;;;;8723566;40;10527;-64
2021/07/30 18:32:16;;;;;;;;;21.25;20.00;;;;;;;;8720692;40;10518;-63
2021/07/30 18:38:26;;;;;;;;;22.25;21.25;;;;;;;;8724474;40;10553;-63
2021/07/30 18:44:29;;;;;;;;;29.75;29.50;;;;;;;;8724277;40;10538;-62
2021/07/30 18:50:32;;;;;;;;;24.25;23.50;;;;;;;;8715120;40;10541;-64
2021/07/30 18:56:35;;;;;;;;;24.50;22.00;;;;;;;;8724227;40;11119;-62
2021/07/30 19:02:38;;;;;;;;;26.67;25.67;;;;;;;;8695040;40;1206601;-63
2021/07/30 19:08:40;;;;;;;;;23.75;23.75;;;;;;;;8725496;40;11231;-63
2021/07/30 19:14:42;;;;;;;;;25.25;22.25;;;;;;;;8725241;40;10476;-62
2021/07/30 19:20:44;;;;;;;;;23.00;23.00;;;;;;;;8725243;40;10704;-62
2021/07/30 19:26:47;;;;;;;;;25.00;23.00;;;;;;;;8725315;40;10537;-62
2021/07/30 19:32:49;;;;;;;;;21.25;19.75;;;;;;;;8725807;40;10915;-63
2021/07/30 19:38:51;;;;;;;;;26.50;24.50;;;;;;;;8725826;40;11139;-62
2021/07/30 19:44:53;;;;;;;;;24.00;22.50;;;;;;;;8725131;40;11211;-63
2021/07/30 19:50:55;;;;;;;;;26.00;25.00;;;;;;;;8723227;40;10765;-64
2021/07/30 19:56:59;;;;;;;;;23.25;19.00;;;;;;;;8724869;40;10603;-63
2021/07/30 20:03:04;;;;;;;;;21.75;17.50;;;;;;;;8724989;40;10792;-63
2021/07/30 20:09:06;;;;;;;;;28.50;27.50;;;;;;;;8724610;40;10541;-62
2021/07/30 20:15:09;;;;;;;;;30.00;26.25;;;;;;;;8731279;40;10649;-62
2021/07/30 20:21:27;;;;;;;;;28.50;26.00;;;;;;;;8724303;40;11070;-63
2021/07/30 20:27:30;;;;;;;;;26.00;26.00;;;;;;;;8725337;40;10742;-63
2021/07/30 20:33:34;;;;;;;;;26.50;24.25;;;;;;;;8724081;40;10550;-63
2021/07/30 20:39:38;;;;;;;;;33.50;28.25;;;;;;;;8724335;40;10525;-62
2021/07/30 20:45:40;;;;;;;;;22.50;22.50;;;;;;;;8723077;40;10782;-62
2021/07/30 20:51:45;;;;;;;;;27.75;26.00;;;;;;;;8723837;40;11227;-63
2021/07/30 20:57:47;;;;;;;;;27.75;26.00;;;;;;;;8723354;40;10637;-62
2021/07/30 21:03:50;;;;;;;;;32.00;28.50;;;;;;;;8722642;40;10749;-63
2021/07/30 21:09:52;;;;;;;;;23.50;22.75;;;;;;;;8723933;40;10565;-62
2021/07/30 21:15:54;;;;;;;;;27.25;26.25;;;;;;;;8724518;40;10716;-62
2021/07/30 21:21:57;;;;;;;;;23.25;22.25;;;;;;;;8723615;40;10572;-62
2021/07/30 21:27:59;;;;;;;;;27.00;25.25;;;;;;;;8723521;40;10621;-63
2021/07/30 21:34:02;;;;;;;;;24.00;23.75;;;;;;;;8723226;40;10866;-63
2021/07/30 21:40:05;;;;;;;;;24.25;22.50;;;;;;;;8724647;40;10551;-62
2021/07/30 21:46:15;;;;;;;;;19.25;19.25;;;;;;;;8724077;40;10568;-62
2021/07/30 21:52:17;;;;;;;;;24.50;22.50;;;;;;;;8723131;40;10614;-63
2021/07/30 21:58:19;;;;;;;;;25.50;24.75;;;;;;;;8723970;40;10681;-62
2021/07/30 22:04:21;;;;;;;;;26.75;26.75;;;;;;;;8723334;40;10635;-62
2021/07/30 22:10:23;;;;;;;;;31.00;27.00;;;;;;;;8731558;40;11204;-62
2021/07/30 22:16:25;;;;;;;;;23.75;21.75;;;;;;;;8725364;40;10672;-62
2021/07/30 22:22:28;;;;;;;;;23.25;21.75;;;;;;;;8727128;40;10631;-63
2021/07/30 22:28:30;;;;;;;;;27.75;26.25;;;;;;;;8724752;40;10666;-61
2021/07/30 22:34:32;;;;;;;;;28.00;24.25;;;;;;;;8725882;40;10737;-63
2021/07/30 22:47:02;;;;;;;;;23.50;23.50;;;;;;;;8726484;40;11343;-63
2021/07/30 22:53:05;;;;;;;;;27.00;25.00;;;;;;;;8725522;40;10806;-62
2021/07/30 22:59:07;;;;;;;;;26.75;25.75;;;;;;;;8725448;40;10779;-62
2021/07/30 23:05:09;;;;;;;;;31.50;29.00;;;;;;;;8725531;40;11015;-62
2021/07/30 23:11:13;;;;;;;;;27.75;27.25;;;;;;;;8726557;40;10818;-61
2021/07/30 23:17:15;;;;;;;;;27.00;25.25;;;;;;;;8727490;40;10707;-63
2021/07/30 23:23:17;;;;;;;;;28.00;26.25;;;;;;;;8725092;40;11358;-61
2021/07/30 23:29:20;;;;;;;;;29.25;28.75;;;;;;;;8725503;40;10900;-62
2021/07/30 23:35:23;;;;;;;;;29.50;28.75;;;;;;;;8725064;40;10888;-62
2021/07/30 23:41:25;;;;;;;;;30.00;28.75;;;;;;;;8724655;40;11173;-62
2021/07/30 23:47:27;;;;;;;;;28.50;27.00;;;;;;;;8724594;40;11022;-62
2021/07/30 23:53:29;;;;;;;;;28.75;28.00;;;;;;;;8724747;40;11224;-63
2021/07/30 23:59:31;;;;;;;;;31.75;29.25;;;;;;;;8726048;40;11087;-63
